Time;durP1;ratioP1;P1;durP2;ratioP2;P2;SDS_P1;SDS_P2;PMS_P1;PMS_P2;Temp;Humidity;BMP_temperature;BMP_pressure;BME280_temperature;BME280_humidity;BME280_pressure;Samples;Min_cycle;Max_cycle;Signal;HPM_P1;HPM_P2
2021/01/27 00:00:27;;;;;;;17.70;11.98;;;;;;;0.29;97.47;93878.50;5072885;28;20205;-78
2021/01/27 00:02:54;;;;;;;20.33;11.77;;;;;;;0.37;97.04;93876.25;5073113;28;20534;-78
2021/01/27 00:05:23;;;;;;;18.17;12.60;;;;;;;0.37;96.97;93876.25;5073170;28;20193;-78
2021/01/27 00:07:50;;;;;;;25.83;13.00;;;;;;;0.32;97.08;93872.31;5072726;28;20190;-78
2021/01/27 00:10:17;;;;;;;19.55;13.52;;;;;;;0.41;97.00;93870.00;5073170;28;20233;-78
2021/01/27 00:12:44;;;;;;;31.33;14.05;;;;;;;0.42;97.13;93870.81;5076989;28;20248;-78
2021/01/27 00:15:14;;;;;;;23.30;13.68;;;;;;;0.48;96.80;93873.00;5076964;28;20289;-78
2021/01/27 00:17:40;;;;;;;18.58;12.60;;;;;;;0.43;96.69;93878.47;5076546;28;20236;-78
2021/01/27 00:20:09;;;;;;;28.02;12.93;;;;;;;0.47;96.87;93886.84;5077112;28;20232;-78
2021/01/27 00:22:36;;;;;;;21.48;12.73;;;;;;;0.45;96.87;93881.78;5076608;28;20241;-79
2021/01/27 00:25:04;;;;;;;24.05;12.40;;;;;;;0.45;97.32;93883.53;5077248;28;20191;-78
2021/01/27 00:27:31;;;;;;;19.27;11.98;;;;;;;0.40;97.72;93880.41;5076939;28;20192;-78
2021/01/27 00:29:58;;;;;;;19.38;10.88;;;;;;;0.45;97.75;93874.03;5076872;28;20221;-78
2021/01/27 00:32:24;;;;;;;20.60;12.50;;;;;;;0.43;97.79;93880.22;5076424;28;20210;-78
2021/01/27 00:34:50;;;;;;;16.27;11.00;;;;;;;0.39;97.52;93878.75;5077079;28;20778;-78
2021/01/27 00:37:17;;;;;;;19.40;12.55;;;;;;;0.38;97.94;93872.75;5076860;28;20202;-78
2021/01/27 00:39:43;;;;;;;17.80;12.30;;;;;;;0.41;98.00;93876.91;5076929;28;20286;-78
2021/01/27 00:42:09;;;;;;;21.25;12.30;;;;;;;0.44;97.70;93869.78;5076470;28;20202;-78
2021/01/27 00:44:36;;;;;;;19.80;11.50;;;;;;;0.42;97.64;93883.72;5076798;28;20507;-78
2021/01/27 00:47:03;;;;;;;18.20;11.07;;;;;;;0.38;97.69;93877.91;5076314;28;20198;-77
2021/01/27 00:49:29;;;;;;;20.48;13.10;;;;;;;0.35;98.01;93869.53;5077008;28;20225;-78
2021/01/27 00:51:55;;;;;;;18.08;13.13;;;;;;;0.37;97.74;93876.25;5042494;28;20198;-80
2021/01/27 00:54:22;;;;;;;19.75;11.25;;;;;;;0.34;98.26;93868.72;5076210;28;20676;-79
2021/01/27 00:56:48;;;;;;;19.02;12.13;;;;;;;0.32;97.74;93869.75;5076353;28;20585;-79
2021/01/27 00:59:14;;;;;;;21.65;12.73;;;;;;;0.38;98.04;93879.69;5076001;28;20194;-79
2021/01/27 01:01:41;;;;;;;24.58;11.73;;;;;;;0.45;98.04;93880.94;5076468;28;20589;-79
2021/01/27 01:04:08;;;;;;;25.10;13.02;;;;;;;0.35;97.93;93872.94;5076270;28;20240;-79
2021/01/27 01:06:34;;;;;;;22.15;11.38;;;;;;;0.39;97.60;93877.00;5040705;28;20217;-79
2021/01/27 01:09:01;;;;;;;21.85;13.70;;;;;;;0.44;97.97;93877.53;5075757;28;20201;-78
2021/01/27 01:11:43;;;;;;;20.83;13.43;;;;;;;0.53;97.60;93882.13;5076034;28;20228;-79
2021/01/27 01:14:09;;;;;;;21.58;11.52;;;;;;;0.45;97.34;93879.19;5076070;28;20285;-79
2021/01/27 01:16:38;;;;;;;26.55;13.50;;;;;;;0.45;96.98;93873.19;5075683;28;20197;-78
2021/01/27 01:19:05;;;;;;;20.90;10.70;;;;;;;0.36;97.89;93868.63;5076065;28;20206;-78
2021/01/27 01:21:32;;;;;;;21.60;13.73;;;;;;;0.46;97.71;93877.44;5075775;28;20260;-78
2021/01/27 01:30:43;;;;;;;36.45;12.57;;;;;;;0.49;97.91;93860.00;5074380;28;20263;-77
2021/01/27 01:33:11;;;;;;;21.77;12.38;;;;;;;0.53;97.12;93845.97;5075685;28;20209;-78
2021/01/27 01:35:39;;;;;;;20.70;12.63;;;;;;;0.51;96.47;93837.50;5075901;28;20210;-78
2021/01/27 01:38:06;;;;;;;24.83;11.65;;;;;;;0.46;96.84;93844.72;5024396;28;20209;-78
2021/01/27 01:40:34;;;;;;;16.70;10.52;;;;;;;0.54;97.08;93827.00;5075947;28;20201;-78
2021/01/27 01:43:03;;;;;;;23.05;11.30;;;;;;;0.57;97.13;93834.53;5075430;28;20206;-78
2021/01/27 01:45:32;;;;;;;17.15;10.38;;;;;;;0.55;97.00;93836.38;5075925;28;20197;-77
2021/01/27 01:48:02;;;;;;;17.30;10.23;;;;;;;0.47;96.82;93830.88;5076608;28;20664;-78
2021/01/27 01:50:29;;;;;;;18.42;10.20;;;;;;;0.51;96.84;93832.34;5075483;28;20206;-78
2021/01/27 01:52:59;;;;;;;21.27;11.00;;;;;;;0.49;96.92;93839.38;5075054;28;20191;-78
2021/01/27 01:55:26;;;;;;;15.98;9.98;;;;;;;0.50;96.76;93822.13;5075759;28;20189;-78
2021/01/27 01:57:55;;;;;;;16.48;11.43;;;;;;;0.43;97.07;93829.44;5074677;28;20206;-78
2021/01/27 02:00:24;;;;;;;17.35;10.48;;;;;;;0.41;97.53;93830.47;5075274;28;20206;-78
2021/01/27 02:02:51;;;;;;;16.05;10.40;;;;;;;0.38;98.36;93826.31;5075748;28;20551;-79
2021/01/27 02:05:20;;;;;;;16.48;10.88;;;;;;;0.42;98.50;93838.09;5075212;28;20221;-76
2021/01/27 02:07:47;;;;;;;18.25;10.98;;;;;;;0.49;98.00;93829.03;5074630;28;20289;-77
2021/01/27 02:10:16;;;;;;;15.80;9.63;;;;;;;0.45;97.81;93821.59;5074589;28;20222;-77
2021/01/27 02:13:10;;;;;;;18.10;11.00;;;;;;;0.49;97.56;93823.06;5075558;28;20695;-78
2021/01/27 02:15:52;;;;;;;16.25;8.73;;;;;;;0.45;97.81;93822.41;5074627;28;20190;-79
2021/01/27 02:18:29;;;;;;;19.58;12.10;;;;;;;0.49;97.93;93823.06;5074083;28;20198;-78
2021/01/27 02:21:22;;;;;;;17.17;10.50;;;;;;;0.51;97.96;93827.19;5074126;28;20645;-78
2021/01/27 02:24:06;;;;;;;21.08;10.80;;;;;;;0.44;97.91;93819.94;5074526;28;20205;-78
2021/01/27 02:26:50;;;;;;;16.38;9.23;;;;;;;0.45;98.01;93817.25;5074203;28;20206;-78
2021/01/27 02:29:43;;;;;;;16.30;10.50;;;;;;;0.39;98.01;93827.97;5073831;28;20213;-78
2021/01/27 02:32:32;;;;;;;14.18;10.15;;;;;;;0.34;98.55;93824.84;4973200;28;20213;-78
2021/01/27 02:35:10;;;;;;;14.13;9.68;;;;;;;0.37;98.84;93827.25;4972694;28;20260;-78
2021/01/27 02:37:45;;;;;;;17.15;11.85;;;;;;;0.44;98.54;93825.94;4973145;28;20197;-79
2021/01/27 02:40:19;;;;;;;14.77;9.45;;;;;;;0.44;98.37;93845.75;4941043;28;20232;-78
2021/01/27 02:42:58;;;;;;;15.13;10.52;;;;;;;0.58;98.83;93854.28;4973446;28;20208;-78
2021/01/27 02:45:30;;;;;;;15.00;9.10;;;;;;;0.50;98.15;93859.09;4973717;28;20209;-78
2021/01/27 02:48:01;;;;;;;16.63;9.95;;;;;;;0.50;97.73;93851.34;4941610;28;20202;-78
2021/01/27 02:50:34;;;;;;;14.52;8.73;;;;;;;0.47;97.84;93863.63;4973179;28;20225;-78
2021/01/27 02:53:06;;;;;;;14.80;8.82;;;;;;;0.44;98.18;93864.63;4972869;28;20205;-78
2021/01/27 02:55:37;;;;;;;14.80;9.95;;;;;;;0.49;98.66;93862.59;4973457;28;20252;-78
2021/01/27 02:58:10;;;;;;;17.55;9.90;;;;;;;0.47;98.21;93858.44;4972685;28;20204;-78
2021/01/27 03:00:42;;;;;;;15.77;9.55;;;;;;;0.52;98.18;93859.00;4972760;28;20193;-79
2021/01/27 03:03:15;;;;;;;13.77;8.50;;;;;;;0.54;98.75;93860.53;4972773;28;20220;-79
2021/01/27 03:05:44;;;;;;;18.58;10.13;;;;;;;0.53;98.33;93861.47;4972773;28;20637;-78
2021/01/27 03:08:16;;;;;;;15.45;9.02;;;;;;;0.52;98.61;93849.50;4974453;28;20189;-78
2021/01/27 03:10:47;;;;;;;14.95;9.52;;;;;;;0.53;98.70;93851.16;5073786;28;20596;-78
2021/01/27 03:13:14;;;;;;;13.98;8.70;;;;;;;0.51;98.67;93858.16;5073841;28;20557;-79
2021/01/27 03:15:40;;;;;;;15.68;9.73;;;;;;;0.46;98.81;93862.78;5073880;28;20241;-78
2021/01/27 03:18:13;;;;;;;12.95;9.18;;;;;;;0.48;99.65;93862.69;5073658;28;20228;-78
2021/01/27 03:20:41;;;;;;;14.80;9.23;;;;;;;0.45;99.53;93860.31;5074075;28;20205;-79
2021/01/27 03:23:16;;;;;;;15.25;8.73;;;;;;;0.48;98.96;93866.09;5073772;28;20579;-78
2021/01/27 03:25:48;;;;;;;11.73;9.50;;;;;;;0.50;100.00;93864.25;5073815;28;20209;-78
2021/01/27 03:28:21;;;;;;;14.73;9.32;;;;;;;0.45;99.65;93861.13;5073158;28;20215;-78
2021/01/27 03:30:48;;;;;;;19.10;10.80;;;;;;;0.45;100.00;93874.03;5074003;28;20225;-78
2021/01/27 03:33:17;;;;;;;13.43;10.23;;;;;;;0.48;100.00;93870.44;5021895;28;20224;-78
2021/01/27 03:35:47;;;;;;;19.40;9.93;;;;;;;0.49;100.00;93872.91;5073699;28;20187;-78
2021/01/27 03:38:22;;;;;;;16.05;9.20;;;;;;;0.51;100.00;93878.81;5073380;28;20230;-78
2021/01/27 03:40:51;;;;;;;13.75;8.60;;;;;;;0.53;100.00;93882.13;5073396;28;20700;-78
2021/01/27 03:43:24;;;;;;;12.98;9.25;;;;;;;0.46;100.00;93886.00;5073259;28;20194;-78
2021/01/27 03:45:56;;;;;;;14.13;9.55;;;;;;;0.41;100.00;93877.72;5076317;28;20186;-78
2021/01/27 03:48:29;;;;;;;15.38;9.60;;;;;;;0.30;100.00;93880.97;5042308;28;20199;-78
2021/01/27 03:50:58;;;;;;;14.18;8.90;;;;;;;0.29;100.00;93888.81;5026023;28;20229;-78
2021/01/27 03:53:27;;;;;;;16.20;8.73;;;;;;;0.29;100.00;93889.66;5077219;28;20193;-78
2021/01/27 03:56:01;;;;;;;18.45;9.82;;;;;;;0.31;100.00;93889.56;5077119;28;20202;-78
2021/01/27 03:58:33;;;;;;;17.05;9.60;;;;;;;0.32;100.00;93890.38;5077449;28;20193;-78
2021/01/27 04:01:02;;;;;;;15.52;9.80;;;;;;;0.33;100.00;93894.63;5077396;28;20593;-78
2021/01/27 04:03:30;;;;;;;13.07;9.18;;;;;;;0.39;100.00;93894.22;5077442;28;20258;-78
2021/01/27 04:05:56;;;;;;;16.55;10.48;;;;;;;0.39;100.00;93899.38;5077502;28;20304;-78
2021/01/27 04:08:22;;;;;;;15.82;10.07;;;;;;;0.47;100.00;93897.16;5077125;28;20208;-79
2021/01/27 04:10:50;;;;;;;16.40;8.77;;;;;;;0.47;100.00;93902.31;5077030;28;20214;-78
2021/01/27 04:13:16;;;;;;;16.48;9.65;;;;;;;0.50;100.00;93902.97;5076692;28;20186;-79
2021/01/27 04:15:42;;;;;;;15.60;9.98;;;;;;;0.53;100.00;93907.09;5076882;28;20209;-79
2021/01/27 04:18:09;;;;;;;13.95;9.43;;;;;;;0.51;100.00;93902.03;5076888;28;20201;-76
2021/01/27 04:20:35;;;;;;;16.45;9.77;;;;;;;0.51;100.00;93909.78;5076998;28;20206;-79
2021/01/27 04:23:02;;;;;;;13.23;8.73;;;;;;;0.47;100.00;93918.63;5076688;28;20198;-78
2021/01/27 04:25:28;;;;;;;19.02;10.43;;;;;;;0.44;100.00;93916.25;5077054;28;20205;-79
2021/01/27 04:27:55;;;;;;;14.60;9.23;;;;;;;0.40;100.00;93921.69;5077172;28;20205;-79
2021/01/27 04:30:28;;;;;;;15.27;9.80;;;;;;;0.40;100.00;93916.53;5076122;28;20229;-79
2021/01/27 04:32:55;;;;;;;12.85;8.70;;;;;;;0.48;100.00;93919.47;5076476;28;20206;-77
2021/01/27 04:35:22;;;;;;;12.15;9.43;;;;;;;0.50;100.00;93912.44;5076810;28;20296;-76
2021/01/27 04:37:48;;;;;;;18.30;10.55;;;;;;;0.51;100.00;93916.69;5077056;28;20231;-76
2021/01/27 04:40:21;;;;;;;20.65;11.70;;;;;;;0.47;100.00;93918.63;5076785;28;20205;-76
2021/01/27 04:42:49;;;;;;;17.17;10.85;;;;;;;0.48;100.00;93920.28;5076324;28;20191;-76
2021/01/27 04:45:16;;;;;;;13.50;9.68;;;;;;;0.43;100.00;93922.31;5076317;28;20297;-79
2021/01/27 04:47:51;;;;;;;13.88;9.02;;;;;;;0.45;100.00;93925.63;5076267;28;20214;-77
2021/01/27 04:50:25;;;;;;;15.32;10.00;;;;;;;0.48;100.00;93930.63;5076241;28;20225;-77
2021/01/27 04:53:11;;;;;;;18.48;10.98;;;;;;;0.46;100.00;93929.06;5076369;28;20206;-77
2021/01/27 04:56:06;;;;;;;14.40;8.30;;;;;;;0.51;100.00;93939.91;4994947;28;20208;-77
2021/01/27 04:58:40;;;;;;;12.57;9.52;;;;;;;0.53;99.66;93936.31;4994570;28;20209;-77
2021/01/27 05:01:26;;;;;;;19.60;10.73;;;;;;;0.63;99.73;93946.94;4994728;28;20704;-77
2021/01/27 05:04:05;;;;;;;12.18;9.32;;;;;;;0.65;99.17;93950.25;4994360;28;20197;-78
2021/01/27 05:09:56;;;;;;;14.00;10.45;;;;;;;0.55;97.93;93946.53;4993341;28;20315;-77
2021/01/27 05:12:27;;;;;;;14.20;10.15;;;;;;;0.59;98.39;93951.44;4994641;28;20212;-77
2021/01/27 05:14:55;;;;;;;15.68;10.23;;;;;;;0.63;98.32;93946.09;4994384;28;20668;-77
2021/01/27 05:17:22;;;;;;;18.25;10.35;;;;;;;0.56;97.52;93943.88;4994382;28;20209;-77
2021/01/27 05:19:49;;;;;;;18.60;10.63;;;;;;;0.45;97.83;93946.28;4994119;28;20215;-77
2021/01/27 05:22:19;;;;;;;17.65;10.82;;;;;;;0.46;97.61;93941.94;4994324;28;20200;-77
2021/01/27 05:24:45;;;;;;;18.15;11.23;;;;;;;0.40;97.70;93932.00;4994239;28;20212;-78
2021/01/27 05:27:17;;;;;;;13.68;10.48;;;;;;;0.28;98.00;93942.13;4994230;28;20207;-77
2021/01/27 05:29:49;;;;;;;24.40;12.77;;;;;;;0.25;98.44;93950.06;4961706;28;20209;-77
2021/01/27 05:32:20;;;;;;;19.88;12.85;;;;;;;0.18;98.25;93958.25;5016186;28;20201;-77
2021/01/27 05:34:49;;;;;;;14.23;10.05;;;;;;;0.10;98.18;93960.47;5075344;28;20546;-78
2021/01/27 05:37:18;;;;;;;18.35;11.02;;;;;;;0.07;98.50;93966.66;5075159;28;20642;-78
2021/01/27 05:39:46;;;;;;;18.35;11.88;;;;;;;0.06;98.16;93964.16;5075328;28;20231;-81
2021/01/27 05:42:21;;;;;;;20.02;11.73;;;;;;;-0.05;97.70;93962.19;5076040;28;20186;-78
2021/01/27 05:44:48;;;;;;;25.98;12.93;;;;;;;-0.02;98.06;93968.00;5074685;28;20194;-80
2021/01/27 05:47:26;;;;;;;23.05;13.50;;;;;;;2.68;100.00;93971.38;5074938;28;20227;-79
2021/01/27 05:49:53;;;;;;;24.33;14.75;;;;;;;2.03;100.00;93979.28;5074625;28;20190;-78
2021/01/27 05:52:26;;;;;;;15.20;11.57;;;;;;;1.70;93.91;93982.28;5074515;28;20190;-78
2021/01/27 05:54:52;;;;;;;27.48;14.68;;;;;;;1.37;90.39;93993.03;5074724;28;20256;-77
2021/01/27 05:57:24;;;;;;;21.67;14.77;;;;;;;1.12;89.75;93993.75;5075396;28;20188;-78
2021/01/27 06:00:04;;;;;;;17.95;12.55;;;;;;;1.03;89.58;93996.09;5074718;28;20281;-77
2021/01/27 06:02:36;;;;;;;16.10;11.20;;;;;;;0.83;90.02;93999.91;5074919;28;20193;-77
2021/01/27 06:05:07;;;;;;;15.35;12.05;;;;;;;0.56;90.74;93992.91;5074497;28;20198;-77
2021/01/27 06:07:33;;;;;;;16.30;11.07;;;;;;;1.25;100.00;93988.66;5022446;28;20207;-77
2021/01/27 06:10:30;;;;;;;18.25;12.93;;;;;;;1.11;97.46;94001.59;5073615;28;20573;-77
2021/01/27 06:13:12;;;;;;;23.75;11.85;;;;;;;0.87;91.78;94002.22;5074315;28;20206;-77
2021/01/27 06:15:38;;;;;;;20.80;12.45;;;;;;;0.76;89.75;94006.38;5075091;28;20549;-77
2021/01/27 06:18:19;;;;;;;14.57;10.65;;;;;;;0.64;90.19;94013.13;5074027;28;20240;-76
2021/01/27 06:20:47;;;;;;;15.90;10.88;;;;;;;0.55;89.87;94014.47;5039416;28;20202;-77
2021/01/27 06:23:44;;;;;;;13.68;9.43;;;;;;;0.44;89.93;94016.06;5074693;28;20202;-77
2021/01/27 06:26:55;;;;;;;16.98;10.88;;;;;;;0.34;89.50;94014.94;5074351;28;20289;-76
2021/01/27 06:29:45;;;;;;;18.90;12.65;;;;;;;0.39;90.97;94008.59;5072560;28;20533;-76
2021/01/27 06:32:36;;;;;;;19.77;11.85;;;;;;;0.44;89.94;94016.88;5074493;28;20610;-77
2021/01/27 06:35:11;;;;;;;17.02;11.30;;;;;;;0.44;89.46;94014.31;5022267;28;20198;-77
2021/01/27 06:38:01;;;;;;;13.70;10.82;;;;;;;0.44;88.93;94016.88;5055685;28;20210;-77
2021/01/27 06:40:36;;;;;;;15.90;9.30;;;;;;;0.34;88.35;94005.47;5002789;28;20209;-77
2021/01/27 06:43:47;;;;;;;13.00;9.52;;;;;;;0.38;88.28;93995.78;5053849;28;20237;-77
2021/01/27 06:46:40;;;;;;;17.65;9.43;;;;;;;0.38;88.83;94006.94;4973098;28;20620;-76
2021/01/27 06:49:34;;;;;;;17.20;9.73;;;;;;;0.35;87.97;94011.44;4972988;28;20209;-77
2021/01/27 06:52:39;;;;;;;17.92;11.80;;;;;;;0.30;88.21;94006.56;4973015;28;20315;-77
2021/01/27 06:55:18;;;;;;;24.00;12.23;;;;;;;0.24;87.52;94004.31;4840702;29;20214;-77
2021/01/27 06:58:05;;;;;;;18.80;10.95;;;;;;;0.23;88.02;94005.25;4798819;29;20213;-77
2021/01/27 07:00:46;;;;;;;14.55;10.57;;;;;;;0.28;88.51;94003.22;4810156;29;20221;-76
2021/01/27 07:03:44;;;;;;;25.90;13.50;;;;;;;0.25;88.42;93998.25;4840949;29;20261;-76
2021/01/27 07:06:50;;;;;;;20.65;12.82;;;;;;;0.31;88.34;94008.22;4841045;29;20212;-77
2021/01/27 07:09:47;;;;;;;18.20;11.23;;;;;;;0.24;88.50;94019.81;4840912;29;20213;-77
2021/01/27 07:12:23;;;;;;;18.92;10.93;;;;;;;0.20;88.34;94019.16;4786573;30;20781;-77
2021/01/27 07:15:18;;;;;;;16.75;11.43;;;;;;;0.25;88.67;94026.63;4786637;30;20241;-76
2021/01/27 07:18:26;;;;;;;13.82;9.25;;;;;;;0.27;88.04;94035.09;4715622;30;20616;-76
2021/01/27 07:20:57;;;;;;;12.77;9.25;;;;;;;0.32;88.10;94040.84;4715012;30;20222;-77
2021/01/27 07:23:30;;;;;;;14.68;9.90;;;;;;;0.30;86.67;94043.50;4756165;30;20216;-77
2021/01/27 07:26:05;;;;;;;17.17;11.00;;;;;;;0.41;87.03;94047.22;4768340;30;20674;-76
2021/01/27 07:28:37;;;;;;;9.07;7.20;;;;;;;0.45;86.57;94049.50;4768171;30;20624;-77
2021/01/27 07:31:12;;;;;;;15.98;10.25;;;;;;;0.48;85.98;94045.91;4797044;29;20283;-77
2021/01/27 07:33:43;;;;;;;14.50;10.32;;;;;;;0.59;86.04;94040.97;4895978;29;20822;-78
2021/01/27 07:36:33;;;;;;;25.33;10.90;;;;;;;0.53;84.34;94036.97;4906516;29;20218;-78
2021/01/27 07:39:03;;;;;;;18.05;9.80;;;;;;;0.64;84.58;94031.19;4933938;29;20291;-77
2021/01/27 07:41:43;;;;;;;19.02;12.50;;;;;;;0.84;84.26;94035.94;4930729;29;20209;-77
2021/01/27 07:44:15;;;;;;;15.38;9.98;;;;;;;0.90;83.46;94034.78;4881290;29;20246;-77
2021/01/27 07:46:48;;;;;;;12.85;9.98;;;;;;;0.91;83.03;94036.44;4883906;29;20203;-77
2021/01/27 07:49:22;;;;;;;24.48;13.35;;;;;;;0.95;82.68;94037.06;4938640;28;20668;-78
2021/01/27 07:51:54;;;;;;;22.08;10.40;;;;;;;0.99;82.41;94039.38;4971465;28;20231;-77
2021/01/27 07:54:25;;;;;;;19.67;9.63;;;;;;;0.89;81.45;94044.28;5014849;28;20206;-77
2021/01/27 07:56:57;;;;;;;15.75;8.80;;;;;;;0.91;81.33;94037.25;5072428;28;20545;-76
2021/01/27 07:59:31;;;;;;;18.85;10.18;;;;;;;1.00;81.79;94042.78;5086539;28;20198;-77
2021/01/27 08:02:04;;;;;;;17.55;11.13;;;;;;;0.98;81.10;94037.72;5017305;28;20251;-77
2021/01/27 08:04:36;;;;;;;12.82;10.43;;;;;;;1.03;80.43;94046.00;5052580;28;20731;-77
2021/01/27 08:07:03;;;;;;;15.98;9.15;;;;;;;1.08;80.24;94043.13;5068255;28;20212;-77
2021/01/27 08:09:32;;;;;;;17.00;10.73;;;;;;;1.17;81.12;94035.66;5072705;28;20214;-77
2021/01/27 08:12:12;;;;;;;13.93;8.95;;;;;;;1.05;79.23;94045.91;5073381;28;20230;-77
2021/01/27 08:15:02;;;;;;;13.05;9.68;;;;;;;1.11;79.77;94040.34;5073055;28;20259;-77
2021/01/27 08:18:00;;;;;;;13.98;8.95;;;;;;;1.28;80.67;94034.97;5073001;28;20206;-77
2021/01/27 08:20:28;;;;;;;12.68;9.43;;;;;;;1.30;78.90;94029.72;5053403;28;20596;-77
2021/01/27 08:22:57;;;;;;;16.80;8.65;;;;;;;1.28;77.78;94029.81;5052731;28;20210;-77
2021/01/27 08:25:53;;;;;;;14.65;9.15;;;;;;;1.42;77.65;94031.50;5052787;28;20215;-77
2021/01/27 08:28:39;;;;;;;13.45;8.80;;;;;;;1.42;76.65;94036.69;5052774;28;20206;-77
2021/01/27 08:31:23;;;;;;;18.42;9.60;;;;;;;1.29;76.98;94034.06;5052901;28;20624;-77
2021/01/27 08:34:07;;;;;;;17.67;10.32;;;;;;;1.42;77.70;94023.75;5058181;28;20685;-77
2021/01/27 08:37:02;;;;;;;13.27;9.02;;;;;;;1.43;77.37;94023.66;5041151;28;20210;-76
2021/01/27 08:39:30;;;;;;;17.80;9.23;;;;;;;1.42;77.52;94021.16;5056489;28;20564;-77
2021/01/27 08:42:00;;;;;;;13.10;9.18;;;;;;;1.47;76.89;94024.31;5056774;28;20203;-76
2021/01/27 08:44:30;;;;;;;16.13;9.32;;;;;;;1.51;76.70;94026.63;5056815;28;20267;-76
2021/01/27 08:47:00;;;;;;;16.20;10.48;;;;;;;1.67;76.91;94030.78;5055955;28;20209;-76
2021/01/27 08:49:45;;;;;;;12.63;9.30;;;;;;;1.50;76.08;94031.88;5056504;28;20214;-76
2021/01/27 08:52:36;;;;;;;11.43;7.57;;;;;;;1.34;77.76;94029.41;5056003;28;20219;-76
2021/01/27 08:55:51;;;;;;;12.80;8.90;;;;;;;1.23;76.56;94024.94;5004818;28;20230;-76
2021/01/27 08:58:25;;;;;;;9.93;8.25;;;;;;;1.23;77.13;94027.53;5056016;28;20241;-76
2021/01/27 09:00:53;;;;;;;12.10;7.90;;;;;;;1.18;77.28;94033.91;5056517;28;20191;-76
2021/01/27 09:03:56;;;;;;;11.13;7.93;;;;;;;1.18;78.12;94039.91;5055833;28;20214;-76
2021/01/27 09:06:29;;;;;;;13.15;9.38;;;;;;;1.33;78.01;94045.03;5056436;28;20202;-76
2021/01/27 09:09:07;;;;;;;13.95;8.63;;;;;;;1.48;77.70;94031.97;5056461;28;20203;-76
2021/01/27 09:11:34;;;;;;;12.77;8.77;;;;;;;1.58;76.63;94045.13;5067523;28;20291;-77
2021/01/27 09:14:05;;;;;;;10.45;8.27;;;;;;;1.66;78.54;94053.22;5075648;28;20198;-76
2021/01/27 09:16:31;;;;;;;13.00;9.40;;;;;;;1.63;76.06;94037.09;5075614;28;20204;-76
2021/01/27 09:19:01;;;;;;;16.13;9.32;;;;;;;1.68;76.16;94047.97;5075566;28;20198;-76
2021/01/27 09:21:30;;;;;;;13.50;8.95;;;;;;;1.74;76.09;94039.84;5023719;28;20241;-76
2021/01/27 09:24:05;;;;;;;15.23;10.40;;;;;;;1.87;76.48;94053.63;5075975;28;20189;-76
2021/01/27 09:26:41;;;;;;;22.88;14.20;;;;;;;1.97;75.91;94066.78;5075600;28;20585;-77
2021/01/27 09:29:12;;;;;;;43.67;20.98;;;;;;;2.00;75.62;94070.00;5076125;28;20186;-76
2021/01/27 09:31:38;;;;;;;18.55;10.82;;;;;;;2.01;75.76;94065.66;5075035;28;20755;-77
2021/01/27 09:34:22;;;;;;;12.10;9.20;;;;;;;2.02;75.76;94065.53;5068997;28;20249;-77
2021/01/27 09:36:53;;;;;;;12.95;9.57;;;;;;;2.08;75.76;94072.09;5070320;28;20248;-77
2021/01/27 09:39:31;;;;;;;9.90;6.97;;;;;;;2.07;74.46;94081.63;5064473;28;20244;-77
2021/01/27 09:42:00;;;;;;;14.98;8.32;;;;;;;2.12;74.71;94081.31;5054256;28;20896;-77
2021/01/27 09:44:36;;;;;;;9.60;8.38;;;;;;;2.22;74.62;94084.97;5053899;28;20203;-77
2021/01/27 09:47:07;;;;;;;13.07;8.15;;;;;;;2.22;74.29;94077.19;5053965;28;20198;-77
2021/01/27 09:49:39;;;;;;;10.45;7.68;;;;;;;2.22;74.01;94082.38;5055793;28;20199;-78
2021/01/27 09:52:10;;;;;;;12.52;7.80;;;;;;;2.31;77.99;94080.94;5055523;28;20323;-77
2021/01/27 09:54:39;;;;;;;11.48;8.80;;;;;;;2.35;74.72;94072.06;5054800;28;20290;-77
2021/01/27 09:57:06;;;;;;;14.50;10.07;;;;;;;2.31;74.77;94079.19;5055037;28;20183;-78
2021/01/27 09:59:33;;;;;;;10.70;8.63;;;;;;;2.37;74.80;94078.78;5054852;28;20213;-78
2021/01/27 10:01:59;;;;;;;9.90;7.75;;;;;;;2.32;74.74;94077.44;5054822;28;20243;-77
2021/01/27 10:04:34;;;;;;;13.65;9.55;;;;;;;2.17;75.04;94064.56;5083980;28;20193;-77
2021/01/27 10:07:13;;;;;;;12.88;8.75;;;;;;;2.13;77.15;94064.88;5094830;28;20193;-77
2021/01/27 10:09:46;;;;;;;14.67;8.67;;;;;;;2.23;76.40;94071.09;5045676;28;20657;-77
2021/01/27 10:12:20;;;;;;;18.63;8.60;;;;;;;2.29;76.00;94068.09;5094945;28;20486;-77
2021/01/27 10:14:48;;;;;;;11.00;8.35;;;;;;;2.28;75.57;94071.63;5091848;28;20201;-77
2021/01/27 10:17:15;;;;;;;11.23;7.23;;;;;;;2.35;75.96;94065.13;5074552;28;20206;-78
2021/01/27 10:19:48;;;;;;;10.27;7.30;;;;;;;2.34;78.05;94068.66;5039438;28;20440;-77
2021/01/27 10:22:26;;;;;;;13.23;9.80;;;;;;;2.32;76.99;94064.50;5074508;28;20443;-77
2021/01/27 10:24:53;;;;;;;10.80;8.85;;;;;;;2.20;76.01;94063.53;5039686;28;20575;-77
2021/01/27 10:27:23;;;;;;;14.10;9.98;;;;;;;2.15;76.73;94066.44;5080730;28;20186;-78
2021/01/27 10:29:50;;;;;;;17.95;11.00;;;;;;;2.07;77.48;94055.75;5094317;28;20300;-77
2021/01/27 10:32:20;;;;;;;19.48;13.23;;;;;;;1.99;78.28;94057.16;5094531;28;20229;-78
2021/01/27 10:34:48;;;;;;;15.90;11.85;;;;;;;2.01;78.38;94068.22;5094712;28;20201;-77
2021/01/27 10:37:37;;;;;;;17.13;9.65;;;;;;;1.96;77.24;94062.53;5079755;28;20216;-78
2021/01/27 10:40:23;;;;;;;12.07;9.15;;;;;;;1.85;77.24;94056.31;4960184;28;20220;-78
2021/01/27 10:42:52;;;;;;;12.05;7.75;;;;;;;1.71;78.06;94055.53;4973479;28;20202;-77
2021/01/27 10:45:25;;;;;;;11.38;8.00;;;;;;;1.80;82.10;94053.19;4973480;28;20211;-77
2021/01/27 10:47:59;;;;;;;11.60;7.75;;;;;;;1.72;78.66;94059.75;4973211;28;20661;-77
2021/01/27 10:50:26;;;;;;;15.60;10.38;;;;;;;1.77;78.50;94058.56;4992273;28;20660;-77
2021/01/27 10:52:54;;;;;;;16.30;9.32;;;;;;;1.79;79.44;94061.88;4979333;28;20318;-77
2021/01/27 10:55:21;;;;;;;13.20;9.38;;;;;;;1.73;78.83;94062.25;5011415;28;20558;-77
2021/01/27 10:57:48;;;;;;;14.57;10.57;;;;;;;1.84;78.73;94074.50;5012242;28;20730;-77
2021/01/27 11:00:17;;;;;;;21.05;9.80;;;;;;;1.92;78.02;94071.44;4963329;28;20196;-77
2021/01/27 11:02:44;;;;;;;15.10;10.02;;;;;;;1.96;77.36;94080.66;5011666;28;20238;-77
2021/01/27 11:05:12;;;;;;;9.43;7.20;;;;;;;1.82;77.63;94069.44;5012350;28;20208;-77
2021/01/27 11:07:38;;;;;;;14.07;8.15;;;;;;;1.81;76.53;94074.72;4940554;28;20205;-77
2021/01/27 11:10:07;;;;;;;13.20;8.75;;;;;;;1.67;77.25;94067.81;4972998;28;20205;-77
2021/01/27 11:12:33;;;;;;;12.60;9.43;;;;;;;1.78;78.22;94073.16;4972743;28;20706;-77
2021/01/27 11:15:00;;;;;;;16.58;11.20;;;;;;;1.83;77.94;94083.19;5006884;28;20219;-76
2021/01/27 11:17:26;;;;;;;14.90;10.80;;;;;;;1.95;78.56;94076.41;5070284;28;20201;-77
2021/01/27 11:19:53;;;;;;;13.52;10.95;;;;;;;2.14;79.69;94069.13;5081352;28;20631;-77
2021/01/27 11:22:20;;;;;;;32.50;16.40;;;;;;;2.17;77.48;94066.31;5073207;28;20557;-77
2021/01/27 11:24:46;;;;;;;40.92;18.83;;;;;;;2.16;77.80;94073.25;5073298;28;20277;-77
2021/01/27 11:27:13;;;;;;;22.88;13.20;;;;;;;2.18;79.71;94078.34;5037336;28;20201;-76
2021/01/27 11:29:40;;;;;;;23.67;13.30;;;;;;;2.23;78.31;94075.44;5093766;28;20205;-76
2021/01/27 11:32:06;;;;;;;13.70;9.45;;;;;;;2.23;78.04;94068.50;5093974;28;20209;-77
2021/01/27 11:34:33;;;;;;;15.57;11.60;;;;;;;2.31;78.79;94073.16;5058205;28;20656;-76
2021/01/27 11:36:59;;;;;;;26.85;13.45;;;;;;;2.42;78.53;94066.38;5080625;28;20197;-77
2021/01/27 11:39:25;;;;;;;14.77;10.73;;;;;;;2.35;77.20;94059.94;5073679;28;20233;-77
2021/01/27 11:41:52;;;;;;;12.85;8.88;;;;;;;2.28;76.13;94056.09;5038388;28;20642;-77
2021/01/27 11:44:19;;;;;;;16.58;11.90;;;;;;;2.22;76.37;94064.25;5073391;28;20202;-76
2021/01/27 11:46:46;;;;;;;18.30;9.80;;;;;;;2.96;87.85;94058.41;5083054;28;20188;-77
2021/01/27 11:49:13;;;;;;;15.25;9.30;;;;;;;2.75;78.10;94049.50;5093435;28;20457;-76
2021/01/27 11:51:39;;;;;;;17.47;10.10;;;;;;;2.59;75.71;94065.22;5094012;28;20286;-76
2021/01/27 11:54:06;;;;;;;21.48;10.55;;;;;;;2.48;76.23;94063.38;5093936;28;20451;-78
2021/01/27 11:56:32;;;;;;;22.30;12.35;;;;;;;2.46;77.96;94060.06;5093197;28;20193;-78
2021/01/27 11:58:59;;;;;;;17.58;11.55;;;;;;;2.41;77.77;94067.31;5093316;28;20209;-78
2021/01/27 12:01:28;;;;;;;18.30;11.88;;;;;;;2.33;77.68;94060.97;5093353;28;20193;-78
2021/01/27 12:03:55;;;;;;;18.00;10.85;;;;;;;2.34;77.35;94057.47;5041822;28;20224;-78